Shaftsbury, Vermont
Current Conditions -  °F | °C
As of 11:41 AM on Friday 21 Nov 2014 (Local Time) from KDDH Reporting Station
Light Snow Light Snow  
Wind Chill: 16°   Ceiling: 2700
Heat Index: 25°   Visibility: 2mi
Dew Point: 17°   Wind: 9mph
Humidity: 72%   Direction: 250°WSW
Pressure: 30.17"   Gusts: 18mph
Location:  43.01°N, 73.19°W
Report Text: KDDH 211641Z AUTO 25008G16KT 2SM -SN FEW020 BKN027 OVC038 M04/M08 A3017 RMK AO2 P0000 T10391083
Loading
Personal Weather Stations






























Interactive Weather Map New forecast layout! Learn more

10-Day Weather Forecast

Advertisements
Track Severe Weather on mobile